createdAt,value
2022-10-05T00:01:03.885Z,2.30
2022-10-05T00:03:47.959Z,2.70
2022-10-05T00:06:32.053Z,2.00
2022-10-05T00:09:20.898Z,11.00
2022-10-05T00:12:14.380Z,13.83
2022-10-05T00:15:01.977Z,12.93
2022-10-05T00:17:49.044Z,10.03
2022-10-05T00:20:32.970Z,9.90
2022-10-05T00:23:20.608Z,8.13
2022-10-05T00:26:13.229Z,8.90
2022-10-05T00:28:57.351Z,7.37
2022-10-05T00:31:41.413Z,8.03
2022-10-05T00:34:26.993Z,8.80
2022-10-05T00:37:11.141Z,6.97
2022-10-05T00:39:55.690Z,4.37
2022-10-05T00:42:52.107Z,3.63
2022-10-05T00:45:43.662Z,2.90
2022-10-05T00:48:33.844Z,2.80
2022-10-05T00:51:37.495Z,2.60
2022-10-05T00:54:30.762Z,3.00
2022-10-05T00:57:31.799Z,2.60
2022-10-05T01:00:18.759Z,2.33
2022-10-05T01:03:11.213Z,2.20
2022-10-05T01:06:06.362Z,1.80
2022-10-05T01:08:59.383Z,2.27
2022-10-05T01:11:50.903Z,2.40
2022-10-05T01:14:44.862Z,2.30
2022-10-05T01:17:38.367Z,1.90
2022-10-05T01:20:35.687Z,1.93
2022-10-05T01:23:55.664Z,2.30
2022-10-05T01:27:11.893Z,2.27
2022-10-05T01:30:07.725Z,2.50
2022-10-05T01:33:00.489Z,2.40
2022-10-05T01:35:54.268Z,2.13
2022-10-05T01:38:47.996Z,1.90
2022-10-05T01:41:39.880Z,2.63
2022-10-05T01:44:30.107Z,4.33
2022-10-05T01:47:23.161Z,6.23
2022-10-05T01:50:14.253Z,6.07
2022-10-05T01:53:06.791Z,2.63
2022-10-05T01:55:56.192Z,2.70
2022-10-05T01:58:50.030Z,1.90
2022-10-05T02:01:40.399Z,2.40
2022-10-05T02:05:00.541Z,2.10
2022-10-05T02:07:41.532Z,2.43
2022-10-05T02:10:30.054Z,5.77
2022-10-05T02:13:18.516Z,9.87
2022-10-05T02:16:06.387Z,10.00
2022-10-05T02:18:53.875Z,10.30
2022-10-05T02:21:39.792Z,4.27
2022-10-05T02:24:28.403Z,2.97
2022-10-05T02:27:15.448Z,3.27
2022-10-05T02:30:04.184Z,2.63
2022-10-05T02:32:57.638Z,2.90
2022-10-05T02:35:41.428Z,3.17
2022-10-05T02:38:36.904Z,2.50
2022-10-05T02:41:33.782Z,2.80
2022-10-05T02:44:29.280Z,2.60
2022-10-05T02:47:20.724Z,2.57
2022-10-05T02:50:16.189Z,3.00
2022-10-05T02:53:14.744Z,2.87
2022-10-05T02:56:13.232Z,2.47
2022-10-05T02:59:06.375Z,2.50
2022-10-05T03:01:53.728Z,2.60
2022-10-05T03:04:42.700Z,3.00
2022-10-05T03:07:33.703Z,7.50
2022-10-05T03:10:29.613Z,10.40
2022-10-05T03:13:27.331Z,13.93
2022-10-05T03:16:22.008Z,15.63
2022-10-05T03:19:20.984Z,16.10
2022-10-05T03:22:13.036Z,12.63
2022-10-05T03:25:19.450Z,13.43
2022-10-05T03:28:11.457Z,13.27
2022-10-05T03:31:03.723Z,14.40
2022-10-05T03:33:57.157Z,13.83
2022-10-05T03:36:48.437Z,11.77
2022-10-05T03:39:38.142Z,6.97
2022-10-05T03:42:30.894Z,6.70
2022-10-05T03:45:28.443Z,4.47
2022-10-05T03:48:16.801Z,3.20
2022-10-05T03:51:09.224Z,3.37
2022-10-05T03:53:59.576Z,3.63
2022-10-05T03:56:49.576Z,4.27
2022-10-05T03:59:40.405Z,3.50
2022-10-05T04:02:28.281Z,3.73
2022-10-05T04:05:19.218Z,3.37
2022-10-05T04:08:08.115Z,3.63
2022-10-05T04:10:55.467Z,3.40
2022-10-05T04:13:45.501Z,3.63
2022-10-05T04:16:32.899Z,3.47
2022-10-05T04:19:24.540Z,3.67
2022-10-05T04:22:17.152Z,3.73
2022-10-05T04:25:06.864Z,3.83
2022-10-05T04:27:56.057Z,4.80
2022-10-05T04:30:45.399Z,7.17
2022-10-05T04:33:29.279Z,7.90
2022-10-05T04:36:23.727Z,6.10
2022-10-05T04:39:20.103Z,7.10
2022-10-05T04:42:12.360Z,7.63
2022-10-05T04:45:09.658Z,7.93
2022-10-05T04:48:31.079Z,7.50
2022-10-05T04:51:28.034Z,5.90
2022-10-05T04:54:25.696Z,5.90
2022-10-05T04:57:15.063Z,6.93
2022-10-05T05:00:11.242Z,7.00
2022-10-05T05:03:28.494Z,6.20
2022-10-05T05:06:30.232Z,7.63
2022-10-05T05:09:56.924Z,9.17
2022-10-05T05:12:51.833Z,4.93
2022-10-05T05:15:47.192Z,4.90
2022-10-05T05:18:50.323Z,4.57
2022-10-05T05:21:43.591Z,4.20
2022-10-05T05:24:39.643Z,4.23
2022-10-05T05:27:40.535Z,4.40
2022-10-05T05:30:31.566Z,4.37
2022-10-05T05:33:24.369Z,4.60
2022-10-05T05:36:35.827Z,4.23
2022-10-05T05:39:27.463Z,3.90
2022-10-05T05:42:26.612Z,3.97
2022-10-05T05:45:18.802Z,4.57
2022-10-05T05:48:08.460Z,5.53
2022-10-05T05:50:58.794Z,4.53
2022-10-05T05:53:46.162Z,4.43
2022-10-05T05:56:36.008Z,5.77
2022-10-05T05:59:25.941Z,5.43
2022-10-05T06:02:15.214Z,5.00
2022-10-05T06:05:08.000Z,4.63
2022-10-05T06:07:53.885Z,4.50
2022-10-05T06:10:44.673Z,4.43
2022-10-05T06:13:34.601Z,5.30
2022-10-05T06:16:24.022Z,5.00
2022-10-05T06:19:13.283Z,4.57
2022-10-05T06:22:05.205Z,4.20
2022-10-05T06:25:03.404Z,4.90
2022-10-05T06:28:03.991Z,6.17
2022-10-05T06:30:58.815Z,6.00
2022-10-05T06:33:49.400Z,6.10
2022-10-05T06:36:44.411Z,5.47
2022-10-05T06:39:58.693Z,5.63
2022-10-05T06:43:12.872Z,4.93
2022-10-05T06:46:24.067Z,4.33
2022-10-05T06:49:20.738Z,4.23
2022-10-05T06:52:21.371Z,4.13
2022-10-05T06:55:19.277Z,4.30
2022-10-05T06:58:22.516Z,3.70
2022-10-05T07:01:12.133Z,3.83
2022-10-05T07:04:12.116Z,3.17
2022-10-05T07:07:01.681Z,3.00
2022-10-05T07:09:57.908Z,2.90
2022-10-05T07:12:55.128Z,3.03
2022-10-05T07:15:46.340Z,2.80
2022-10-05T07:18:44.255Z,3.00
2022-10-05T07:21:39.548Z,2.40
2022-10-05T07:24:32.952Z,2.60
2022-10-05T07:27:21.624Z,2.30
2022-10-05T07:30:08.352Z,2.30
2022-10-05T07:33:02.949Z,2.10
2022-10-05T07:36:12.343Z,2.37
2022-10-05T07:39:03.902Z,1.97
2022-10-05T07:41:56.287Z,2.43
2022-10-05T07:44:49.405Z,2.20
2022-10-05T07:47:38.143Z,1.90
2022-10-05T07:50:27.887Z,2.07
2022-10-05T07:53:17.144Z,2.60
2022-10-05T07:56:10.637Z,2.00
2022-10-05T07:59:01.761Z,2.10
2022-10-05T08:01:52.125Z,1.93
2022-10-05T08:04:46.063Z,2.10
2022-10-05T08:07:33.177Z,2.90
2022-10-05T08:10:27.744Z,2.77
2022-10-05T08:13:20.334Z,2.50
2022-10-05T08:16:12.660Z,2.70
2022-10-05T08:19:02.451Z,2.40
2022-10-05T08:21:52.041Z,2.53
2022-10-05T08:24:43.230Z,2.80
2022-10-05T08:27:30.165Z,2.60
2022-10-05T08:30:17.085Z,1.80
2022-10-05T08:33:09.680Z,2.40
2022-10-05T08:36:04.781Z,1.80
2022-10-05T08:38:54.744Z,1.80
2022-10-05T08:42:09.414Z,1.90
2022-10-05T08:45:12.111Z,1.70
2022-10-05T08:48:24.274Z,1.80
2022-10-05T08:51:34.177Z,1.87
2022-10-05T08:54:44.735Z,1.67
2022-10-05T08:57:52.311Z,2.00
2022-10-05T09:00:50.302Z,2.30
2022-10-05T09:04:17.823Z,2.10
2022-10-05T09:07:11.813Z,1.95
2022-10-05T09:10:36.654Z,1.93
2022-10-05T09:13:54.626Z,2.07
2022-10-05T09:17:05.078Z,1.90
2022-10-05T09:20:11.229Z,2.10
2022-10-05T09:23:13.739Z,1.85
2022-10-05T09:26:00.819Z,1.33
2022-10-05T09:28:59.624Z,1.60
2022-10-05T09:32:05.432Z,1.52
2022-10-05T09:35:29.905Z,1.58
2022-10-05T09:38:23.335Z,1.58
2022-10-05T09:41:40.398Z,1.80
2022-10-05T09:44:54.143Z,1.52
2022-10-05T09:48:07.173Z,1.58
2022-10-05T09:51:27.892Z,1.33
2022-10-05T09:54:44.352Z,2.22
2022-10-05T09:57:47.204Z,1.63
2022-10-05T10:00:50.105Z,1.80
2022-10-05T10:04:07.184Z,1.63
2022-10-05T10:07:21.211Z,1.98
2022-10-05T10:10:34.555Z,1.98
2022-10-05T10:13:38.240Z,1.52
2022-10-05T10:16:53.758Z,1.30
2022-10-05T10:20:10.064Z,1.52
2022-10-05T10:23:24.679Z,1.30
2022-10-05T10:26:26.718Z,1.38
2022-10-05T10:29:28.956Z,1.40
2022-10-05T10:32:45.732Z,1.60
2022-10-05T10:35:35.903Z,1.42
2022-10-05T10:38:40.264Z,1.58
2022-10-05T10:41:53.044Z,1.50
2022-10-05T10:45:13.968Z,1.52
2022-10-05T10:48:12.157Z,1.45
2022-10-05T10:51:15.027Z,1.70
2022-10-05T10:54:32.617Z,1.70
2022-10-05T10:57:23.686Z,1.70
2022-10-05T11:00:24.153Z,1.83
2022-10-05T11:03:42.684Z,1.42
2022-10-05T11:07:11.532Z,1.40
2022-10-05T11:10:18.282Z,1.50
2022-10-05T11:13:35.473Z,1.15
2022-10-05T11:16:58.153Z,1.20
2022-10-05T11:20:03.501Z,1.33
2022-10-05T11:23:27.916Z,1.23
2022-10-05T11:26:32.635Z,1.27
2022-10-05T11:29:36.075Z,1.40
2022-10-05T11:32:56.356Z,1.80
2022-10-05T11:36:04.959Z,1.42
2022-10-05T11:39:17.990Z,1.20
2022-10-05T11:42:35.479Z,1.30
2022-10-05T11:45:26.159Z,1.55
2022-10-05T11:48:46.826Z,1.40
2022-10-05T11:51:39.532Z,1.40
2022-10-05T11:54:58.605Z,1.48
2022-10-05T11:57:51.731Z,1.40
2022-10-05T12:00:43.943Z,1.55
2022-10-05T12:03:53.341Z,1.20
2022-10-05T12:06:51.994Z,1.55
2022-10-05T12:10:11.458Z,1.83
2022-10-05T12:13:13.331Z,1.67
2022-10-05T12:16:00.976Z,1.40
2022-10-05T12:18:56.014Z,1.42
2022-10-05T12:21:45.536Z,1.88
2022-10-05T12:24:44.878Z,2.67
2022-10-05T12:27:32.513Z,1.73
2022-10-05T12:30:26.341Z,1.50
2022-10-05T12:33:19.899Z,1.88
2022-10-05T12:36:09.875Z,2.53
2022-10-05T12:39:01.617Z,1.90
2022-10-05T12:41:54.128Z,1.80
2022-10-05T12:44:56.282Z,1.75
2022-10-05T12:47:54.153Z,1.50
2022-10-05T12:50:42.186Z,1.98
2022-10-05T12:53:40.216Z,2.08
2022-10-05T12:56:38.059Z,1.95
2022-10-05T12:59:33.907Z,1.88
2022-10-05T13:02:29.665Z,2.20
2022-10-05T13:05:24.330Z,2.03
2022-10-05T13:08:19.131Z,2.22
2022-10-05T13:11:12.684Z,1.85
2022-10-05T13:14:09.409Z,1.70
2022-10-05T13:17:00.443Z,1.92
2022-10-05T13:19:48.192Z,1.55
2022-10-05T13:22:38.461Z,1.63
2022-10-05T13:25:28.608Z,1.60
2022-10-05T13:28:19.644Z,1.60
2022-10-05T13:31:08.379Z,1.33
2022-10-05T13:34:15.429Z,1.50
2022-10-05T13:37:10.246Z,1.80
2022-10-05T13:40:06.381Z,2.13
2022-10-05T13:42:55.891Z,1.77
2022-10-05T13:45:46.159Z,1.50
2022-10-05T13:48:53.000Z,1.67
2022-10-05T13:51:42.747Z,1.73
2022-10-05T13:54:35.342Z,1.73
2022-10-05T13:57:36.188Z,1.48
2022-10-05T14:00:25.650Z,1.55
2022-10-05T14:03:27.601Z,1.48
2022-10-05T14:06:14.525Z,1.83
2022-10-05T14:08:59.989Z,1.70
2022-10-05T14:11:50.793Z,1.77
2022-10-05T14:14:46.833Z,1.67
2022-10-05T14:17:39.028Z,1.30
2022-10-05T14:20:28.243Z,1.80
2022-10-05T14:23:18.559Z,1.50
2022-10-05T14:26:19.309Z,1.23
2022-10-05T14:29:16.930Z,1.70
2022-10-05T14:32:13.235Z,1.40
2022-10-05T14:35:05.240Z,1.40
2022-10-05T14:37:56.421Z,1.60
2022-10-05T14:40:40.324Z,1.67
2022-10-05T14:43:24.192Z,1.70
2022-10-05T14:46:27.805Z,1.38
2022-10-05T14:49:21.585Z,1.33
2022-10-05T14:52:28.784Z,1.02
2022-10-05T14:55:24.775Z,1.10
2022-10-05T14:58:24.278Z,1.60
2022-10-05T15:01:17.627Z,2.03
2022-10-05T15:04:17.583Z,1.90
2022-10-05T15:07:14.764Z,1.85
2022-10-05T15:10:22.676Z,1.95
2022-10-05T15:13:13.230Z,1.97
2022-10-05T15:16:01.207Z,2.85
2022-10-05T15:18:50.838Z,3.13
2022-10-05T15:21:50.798Z,2.60
2022-10-05T15:24:43.707Z,2.00
2022-10-05T15:27:37.765Z,3.70
2022-10-05T15:30:23.071Z,7.00
2022-10-05T15:33:16.172Z,4.83
2022-10-05T15:36:10.884Z,10.70
2022-10-05T15:39:03.597Z,4.60
2022-10-05T15:42:01.066Z,5.07
2022-10-05T15:45:01.694Z,4.50
2022-10-05T15:47:53.686Z,4.13
2022-10-05T15:50:45.684Z,3.10
2022-10-05T15:53:40.569Z,2.63
2022-10-05T15:56:31.361Z,2.60
2022-10-05T15:59:25.316Z,3.00
2022-10-05T16:02:19.999Z,2.93
2022-10-05T16:05:16.154Z,2.80
2022-10-05T16:08:17.453Z,3.17
2022-10-05T16:11:02.317Z,2.83
2022-10-05T16:13:53.645Z,2.63
2022-10-05T16:16:50.723Z,2.70
2022-10-05T16:19:41.014Z,2.73
2022-10-05T16:22:33.887Z,2.50
2022-10-05T16:25:23.497Z,2.07
2022-10-05T16:28:19.694Z,2.40
2022-10-05T16:31:13.430Z,2.87
2022-10-05T16:34:06.715Z,2.40
2022-10-05T16:37:00.023Z,2.47
2022-10-05T16:39:55.116Z,2.67
2022-10-05T16:42:50.959Z,2.90
2022-10-05T16:45:47.471Z,2.30
2022-10-05T16:48:36.394Z,2.70
2022-10-05T16:51:32.627Z,1.93
2022-10-05T16:54:21.426Z,2.40
2022-10-05T16:57:12.753Z,2.60
2022-10-05T17:00:16.563Z,2.70
2022-10-05T17:03:19.543Z,3.43
2022-10-05T17:06:37.154Z,2.67
2022-10-05T17:09:48.476Z,2.33
2022-10-05T17:12:45.598Z,2.47
2022-10-05T17:15:38.182Z,1.83
2022-10-05T17:18:29.939Z,2.27
2022-10-05T17:21:19.442Z,2.80
2022-10-05T17:24:21.602Z,3.03
2022-10-05T17:27:20.527Z,2.57
2022-10-05T17:30:41.951Z,2.37
2022-10-05T17:33:29.184Z,2.40
2022-10-05T17:36:19.418Z,2.83
2022-10-05T17:39:15.718Z,3.37
2022-10-05T17:42:32.545Z,3.10
2022-10-05T17:45:52.895Z,2.30
2022-10-05T17:48:43.318Z,2.43
2022-10-05T17:52:16.995Z,3.20
2022-10-05T17:55:27.438Z,2.90
2022-10-05T17:59:02.077Z,2.83
2022-10-05T18:02:15.790Z,2.43
2022-10-05T18:05:06.363Z,3.17
2022-10-05T18:08:31.770Z,3.13
2022-10-05T18:11:37.928Z,3.47
2022-10-05T18:14:24.902Z,2.93
2022-10-05T18:17:13.919Z,2.70
2022-10-05T18:20:14.866Z,3.33
2022-10-05T18:23:35.696Z,3.30
2022-10-05T18:26:31.867Z,3.80
2022-10-05T18:29:49.781Z,4.17
2022-10-05T18:32:55.420Z,3.97
2022-10-05T18:35:53.553Z,4.00
2022-10-05T18:38:48.446Z,4.00
2022-10-05T18:41:54.336Z,4.10
2022-10-05T18:44:42.188Z,4.00
2022-10-05T18:47:35.595Z,3.57
2022-10-05T18:50:28.119Z,3.40
2022-10-05T18:53:23.269Z,3.10
2022-10-05T18:56:18.880Z,3.17
2022-10-05T18:59:20.139Z,3.30
2022-10-05T19:02:13.740Z,3.40
2022-10-05T19:05:18.949Z,3.00
2022-10-05T19:08:26.801Z,2.90
2022-10-05T19:11:19.147Z,3.43
2022-10-05T19:14:12.280Z,3.20
2022-10-05T19:17:10.146Z,3.03
2022-10-05T19:20:18.120Z,3.60
2022-10-05T19:23:27.520Z,3.80
2022-10-05T19:26:16.575Z,3.83
2022-10-05T19:29:13.411Z,4.57
2022-10-05T19:32:03.656Z,4.47
2022-10-05T19:35:05.529Z,4.50
2022-10-05T19:37:57.525Z,5.23
2022-10-05T19:40:50.276Z,5.77
2022-10-05T19:43:55.504Z,6.57
2022-10-05T19:46:57.055Z,5.77
2022-10-05T19:49:50.138Z,6.10
2022-10-05T19:52:47.524Z,5.13
2022-10-05T19:55:37.087Z,5.53
2022-10-05T19:58:24.611Z,5.73
2022-10-05T20:01:08.531Z,4.37
2022-10-05T20:03:53.383Z,4.20
2022-10-05T20:06:39.575Z,4.63
2022-10-05T20:09:24.889Z,3.80
2022-10-05T20:12:08.662Z,4.43
2022-10-05T20:15:35.606Z,3.87
2022-10-05T20:19:05.963Z,3.90
2022-10-05T20:21:51.966Z,4.17
2022-10-05T20:24:50.971Z,4.00
2022-10-05T20:27:49.167Z,3.80
2022-10-05T20:30:34.284Z,4.07
2022-10-05T20:33:18.228Z,3.70
2022-10-05T20:36:03.781Z,3.53
2022-10-05T20:38:47.602Z,4.00
2022-10-05T20:41:32.200Z,3.70
2022-10-05T20:44:16.278Z,4.00
2022-10-05T20:47:01.626Z,4.20
2022-10-05T20:49:45.535Z,4.83
2022-10-05T20:52:29.467Z,5.00
2022-10-05T20:55:13.590Z,5.03
2022-10-05T20:57:57.518Z,4.53
2022-10-05T21:00:59.075Z,4.80
2022-10-05T21:03:44.511Z,4.77
2022-10-05T21:06:29.654Z,5.20
2022-10-05T21:09:15.177Z,4.20
2022-10-05T21:11:59.418Z,4.00
2022-10-05T21:14:43.222Z,3.80
2022-10-05T21:17:26.903Z,3.50
2022-10-05T21:20:13.034Z,3.37
2022-10-05T21:22:56.687Z,3.67
2022-10-05T21:25:40.351Z,3.50
2022-10-05T21:28:24.229Z,2.93
2022-10-05T21:31:09.556Z,3.03
2022-10-05T21:33:53.687Z,3.30
2022-10-05T21:36:39.159Z,3.50
2022-10-05T21:39:23.679Z,3.47
2022-10-05T21:42:07.480Z,3.70
2022-10-05T21:44:51.196Z,3.67
2022-10-05T21:47:36.004Z,3.50
2022-10-05T21:50:19.861Z,3.20
2022-10-05T21:53:08.617Z,3.00
2022-10-05T21:55:53.292Z,2.77
2022-10-05T21:58:37.829Z,3.40
2022-10-05T22:01:22.917Z,3.30
2022-10-05T22:04:07.840Z,3.77
2022-10-05T22:06:51.569Z,3.37
2022-10-05T22:09:36.664Z,3.23
2022-10-05T22:12:21.044Z,3.27
2022-10-05T22:15:06.380Z,2.80
2022-10-05T22:17:50.394Z,3.00
2022-10-05T22:20:35.873Z,2.77
2022-10-05T22:23:19.856Z,3.27
2022-10-05T22:26:06.528Z,2.93
2022-10-05T22:28:55.144Z,3.07
2022-10-05T22:31:39.685Z,3.23
2022-10-05T22:34:23.757Z,2.60
2022-10-05T22:37:08.023Z,2.67
2022-10-05T22:39:51.722Z,2.90
2022-10-05T22:42:36.969Z,3.10
2022-10-05T22:45:20.655Z,2.80
2022-10-05T22:48:04.473Z,2.90
2022-10-05T22:50:49.308Z,2.90
2022-10-05T22:53:33.095Z,2.63
2022-10-05T22:56:18.330Z,3.00
2022-10-05T22:59:03.487Z,3.40
2022-10-05T23:01:47.328Z,3.07
2022-10-05T23:04:31.265Z,3.13
2022-10-05T23:07:15.119Z,3.20
2022-10-05T23:09:59.200Z,3.00
2022-10-05T23:12:43.098Z,3.37
2022-10-05T23:15:28.531Z,3.50
2022-10-05T23:18:13.066Z,3.37
2022-10-05T23:20:57.516Z,3.50
2022-10-05T23:23:47.396Z,3.13
2022-10-05T23:26:32.233Z,3.23
2022-10-05T23:29:16.020Z,3.30
2022-10-05T23:32:01.175Z,3.47
2022-10-05T23:34:44.876Z,3.70
2022-10-05T23:37:29.198Z,3.80
2022-10-05T23:40:14.743Z,3.50
2022-10-05T23:42:58.489Z,3.97
2022-10-05T23:45:45.439Z,3.60
2022-10-05T23:48:31.518Z,4.00
2022-10-05T23:51:16.244Z,3.13
2022-10-05T23:54:00.059Z,3.00
2022-10-05T23:56:43.884Z,3.13
2022-10-05T23:59:27.727Z,3.27
